Terminal Aerodrome Forecast
Issued by NWS

Home | Current Version | Previous Version | Graphics & Text | Print | Product List | Glossary On
Versions: 1 2 3 4 5 6 7 8 9 10 11 12
117
FTUS42 KMHX 162336
TAFOAJ
TAF
KOAJ 162336Z 1700/1724 02008G16KT P6SM BKN035
     FM171500 02011G18KT P6SM SKC
     FM172200 VRB04KT P6SM SKC
      AMD LTD TO CLD VIS AND WIND=

USA.gov is the U.S. government's official web portal to all federal, state and local government web resources and services.